Bartow, FL (33830)

05:22 PM EDT die 26o April, anno 2017 (GMT -0400)
MAP837 | | Change Station
Active Advisory: Fire Weather Warning

Elev 124 ft 27.95 °N, 81.79 °W | Updated 13 minutes ago

Partialiter Nubila
Partialiter Nubila
89.0 °F
Feels Like 87 °F
N
10.0
Ventus Variabilis Ventus from Inter Austrum et Zephyrum
Gusts 20.0 mph

Hodie
High -- | Low -- °F
--% Chance of Precip.
Yesterday
High -- | Low -- °F
Precip. -- in
Pressio 29.84 in
Visibilitas 10.0 milia passuum
Clouds Nubes Dispersae 7000 ft
Index Caloris 87 °F
Frigus in quo Ros apparet 55 °F
Umor 32%
Rainfall 0.00 in
Snow Depth Not available.
6:51 AM 7:58 PM
New, 0% visible
METAR KBOW 262050Z 24007KT 10SM SCT070 30/12 A2984
Pressio 29.84 in
Visibilitas 10.0 milia passuum
Clouds Nubes Dispersae 7000 ft
Index Caloris 87 °F
Frigus in quo Ros apparet 55 °F
Umor 32%
Rainfall 0.00 in
Snow Depth Not available.
6:51 AM 7:58 PM
New, 0% visible
METAR KBOW 262050Z 24007KT 10SM SCT070 30/12 A2984

Get Your Daily Forecast Email!

Thanks for signing up!

Be on the lookout for a verification email in your inbox.

You'll start receiving severe weather alerts in your inbox..

×

10-Day Weather Forecast

Almanac

Astronomy

Apr. 26, 2017 Rise Set
Actual Time
Civil Twilight
Nautical Twilight
Astronomical Twilight
Moon
Length Of Visible Light
Length of Day
Tomorrow will be .
, % of the Moon is Illuminated

Today's Extremes

State Highs State Lows

Community

WunderPhotos

WunderBlog® & News

Nearby

Air Quality

  Air Quality AQ Index Pollutant
Not available.

Snow Depth

Station Depth Elevation

Earthquake Activity

City Distance Mag. Time & Date
Minimum magnitude displayed is 2.5.

Coastal Water Temperatures

Locus Calor

Stations

Nearby Weather Stations

Station Location Temp Frigus Venti Frigus in quo Ros apparet Umor Ventus Precip. Elev Renovata Type
                   

Watches & Warnings

Fire Weather Warning
Issued: 10:08 AM EDT Apr. 26, 2017 – National Weather Service

... Red flag warning in effect until 8 PM EDT this evening for low
relative humidity plus high erc values for Lake, Seminole, Orange, and
Osceola counties...

The National Weather Service in Melbourne has issued a red flag
warning, which is in effect until 8 PM EDT this evening.

* Affected area... Lake, Seminole, Orange, and Osceola counties.

* Humidity... 25 to 30 percent for 4 to 6 hours today.

* Impacts... any new or existing fires will spread rapidly. Outdoor
burning is not recommended.

Precautionary/preparedness actions...

A red flag warning means that critical fire weather conditions
are either occurring now... .or will shortly. A combination of
strong winds... low relative humidity... and warm temperatures can
contribute to extreme fire behavior.



Ulrich